Nearby METAR Reports

METAR is the scheduled surface weather observation taken hourly at civil and military airport locations.

METAR is an acronym from the French language and roughly translates as Aviation Routine Weather Report.

 

EGPL - Benbecula Island, United Kingdom
Distance from station: WNW 41mi, 66km
Updated: 22/05/2019 05:50
Overcast
Overcast
 Wind from NW
Wind: NW 15 mph , 24 km/h
Temperature: 10°C
Wind Chill: 7°C
Dew Point: 6°C
Humidity: 76%
Barometer: 1019 hPa
Clouds: Overcast
Visibility: 6 miles , 10 km
Cloud details: Partly cloudy 610 m
Overcast 1311 m
2019/05/22 04:50 EGPL 220450Z AUTO 31013KT 9999 SCT020/// OVC043/// 10/06 Q1019
EGPU - Tiree Island, United Kingdom
Distance from station: SSW 56mi, 90km
Updated: 22/05/2019 05:50
Clear
Clear
 Wind from WNW
Wind: WNW 7 mph , 11 km/h
Temperature: 6°C
Wind Chill: 4°C
Dew Point: 4°C
Humidity: 87%
Barometer: 1019 hPa
Clouds: Clear
Visibility: 6 miles , 10 km
2019/05/22 04:50 EGPU 220450Z AUTO 30006KT 9999 NCD 06/04 Q1019
 
EGEO - Oban Airport, United Kingdom
Distance from station: SE 65mi, 105km
Updated: 18/05/2019 16:50
NOT Current
Mostly cloudy
Mostly cloudy
 Wind from NNW
Wind: NNW 7 mph , 11 km/h
Temperature: 12°C
Dew Point: 9°C
Humidity: 82%
Barometer: 1008 hPa
Clouds: Mostly cloudy
Visibility: 6 miles , 10 km
Cloud details: Few Clouds 671 m
Mostly cloudy 1311 m
2019/05/18 15:50 EGEO 181550Z 34006KT 9999 FEW022 BKN043 12/09 Q1008
EGPO - Stornoway, United Kingdom
Distance from station: 0 66mi, 106km
Updated: 22/05/2019 05:50
Light rain, Mostly cloudy
Light rain, Mostly cloudy
 Wind from NW
Wind: NW 14 mph , 22 km/h
Temperature: 9°C
Wind Chill: 6°C
Dew Point: 9°C
Humidity: 100%
Barometer: 1017 hPa
Summary: Light rain
Clouds: Mostly cloudy
Visibility: 6 miles , 10 km
Cloud details: Few Clouds 183 m
Partly cloudy 274 m
Mostly cloudy 457 m
2019/05/22 04:50 EGPO 220450Z 32012KT 9999 -RA FEW006 SCT009 BKN015 09/09 Q1017
 
EGPE - Inverness/Dalcro, United Kingdom
Distance from station: ENE 88mi, 141km
Updated: 22/05/2019 05:50
Light rain, Overcast
Light rain, Overcast
 Wind from SW
Wind: SW 14 mph , 22 km/h
Temperature: 8°C
Wind Chill: 4°C
Dew Point: 6°C
Humidity: 87%
Barometer: 1016 hPa
Summary: Light rain
Clouds: Overcast
Visibility: 6 miles , 10 km
Cloud details: Overcast 914 m
2019/05/22 04:50 EGPE 220450Z 22012KT 9999 -RA OVC030 08/06 Q1016
EGQA - Tain Range (saws, United Kingdom
Distance from station: ENE 97mi, 156km
Updated: 21/05/2019 14:50
NOT Current
Partly cloudy
Partly cloudy
 Wind from W
Wind: W 16 mph , 26 km/h
Clouds: Partly cloudy
Visibility: 6 miles , 10 km
Cloud details: Few Clouds 488 m
Partly cloudy 732 m
2019/05/21 13:50 EGQA 211350Z 28014KT 9999 FEW016 SCT024 13/// Q1018 WHT
 
EGQK - Kinloss Raf, United Kingdom
Distance from station: ENE 107mi, 171km
Updated: 22/05/2019 05:50
Light rain, Overcast
Light rain, Overcast
 Wind from SW
Wind: SW 13 mph , 20 km/h
Temperature: 8°C
Wind Chill: 4°C
Dew Point: 7°C
Humidity: 93%
Barometer: 1015 hPa
Summary: Light rain
Clouds: Overcast
Visibility: 6 miles , 10 km
Cloud details: Overcast 671 m
2019/05/22 04:50 EGQK 220450Z AUTO 23011KT 9999 -RA OVC022/// 08/07 Q1015
EGPI - Islay/Port Ellen, United Kingdom
Distance from station: S 110mi, 177km
Updated: 22/05/2019 05:50
Few Clouds
Few Clouds
 Wind from E
Wind: E 3 mph , 6 km/h
Temperature: 2°C
Dew Point: 2°C
Humidity: 100%
Barometer: 1019 hPa
Clouds: Few Clouds
Visibility: 6 miles , 10 km
Cloud details: Few Clouds 549 m
2019/05/22 04:50 EGPI 220450Z AUTO 09003KT 9999 FEW018/// 02/02 Q1019
 
EGQS - Lossiemouth Raf, United Kingdom
Distance from station: ENE 117mi, 188km
Updated: 22/05/2019 05:50
Rain, Mostly cloudy
Rain, Mostly cloudy
 Wind from WSW
Wind: WSW 16 mph , 26 km/h
Temperature: 7°C
Wind Chill: 3°C
Dew Point: 7°C
Humidity: 100%
Barometer: 1015 hPa
Summary: Rain
Clouds: Mostly cloudy
Visibility: 4 miles , 7 km
Cloud details: Few Clouds 610 m
Mostly cloudy 1372 m
2019/05/22 04:50 EGQS 220450Z 25014KT 7000 RA FEW020 BKN045 07/07 Q1015 WHT
EGPF - Glasgow Airport, United Kingdom
Distance from station: SE 121mi, 195km
Updated: 22/05/2019 05:50
Clear
Clear
 Wind from SW
Wind: SW 6 mph , 9 km/h
Temperature: 4°C
Wind Chill: 2°C
Dew Point: 3°C
Humidity: 93%
Barometer: 1018 hPa
Clouds: Clear
Visibility: 6 miles , 10 km
2019/05/22 04:50 EGPF 220450Z AUTO 23005KT 9999 NCD 04/03 Q1018
 
EGEC - Campbeltown, United Kingdom
Distance from station: SSE 129mi, 207km
Updated: 22/05/2019 04:50
NOT Current
Few Clouds
Few Clouds
 Wind from E
Wind: E 3 mph , 6 km/h
Temperature: 3°C
Dew Point: 3°C
Humidity: 100%
Barometer: 1019 hPa
Clouds: Few Clouds
Visibility: 6 miles , 10 km
Cloud details: Few Clouds 427 m
2019/05/22 03:50 EGEC 220350Z 09003KT 9999 FEW014 03/03 Q1019
EGPN - Dundee/Riverside, United Kingdom
Distance from station: ESE 137mi, 221km
Updated: 21/05/2019 20:50
NOT Current
Few Clouds
Few Clouds
 Wind from SSE
Wind: SSE 5 mph , 7 km/h
Temperature: 12°C
Dew Point: 10°C
Humidity: 88%
Barometer: 1018 hPa
Clouds: Few Clouds
Visibility: 6 miles , 10 km
Cloud details: Few Clouds 457 m
Few Clouds 914 m
2019/05/21 19:50 EGPN 211950Z 15004KT 9999 FEW015 FEW030CB 12/10 Q1018
 
EGPK - Prestwick(Civ/Na, United Kingdom
Distance from station: SSE 139mi, 224km
Updated: 22/05/2019 05:50
Few Clouds
Few Clouds
 Wind from SE
Wind: SE 3 mph , 6 km/h
Temperature: 5°C
Dew Point: 4°C
Humidity: 93%
Barometer: 1019 hPa
Clouds: Few Clouds
Visibility: 6 miles , 10 km
Cloud details: Few Clouds 1372 m
2019/05/22 04:50 EGPK 220450Z 13003KT 9999 FEW045 05/04 Q1019
EGQL - Leuchars Raf, United Kingdom
Distance from station: ESE 145mi, 233km
Updated: 22/05/2019 05:50
Clear
Clear
 Wind from W
Wind: W 8 mph , 13 km/h
Temperature: 6°C
Wind Chill: 3°C
Dew Point: 5°C
Humidity: 93%
Barometer: 1016 hPa
Summary: Clear
Visibility: greater than 7 miles , 10 km
2019/05/22 04:50 EGQL 220450Z 26007KT CAVOK 06/05 Q1016 BLU
 
EGPH - Edinburgh Airpor, United Kingdom
Distance from station: SE 145mi, 234km
Updated: 22/05/2019 05:50
Clear
Clear
 Wind from WSW
Wind: WSW 8 mph , 13 km/h
Temperature: 5°C
Wind Chill: 2°C
Dew Point: 4°C
Humidity: 93%
Barometer: 1017 hPa
Summary: Clear
Visibility: greater than 7 miles , 10 km
2019/05/22 04:50 EGPH 220450Z 24007KT CAVOK 05/04 Q1017
EGPC - Wick, United Kingdom
Distance from station: NE 146mi, 234km
Updated: 22/05/2019 05:50
Overcast
Overcast
 Wind from NW
Wind: NW 8 mph , 13 km/h
Temperature: 9°C
Wind Chill: 7°C
Dew Point: 9°C
Humidity: 100%
Barometer: 1014 hPa
Clouds: Overcast
Visibility: 4 miles , 6 km
Cloud details: Mostly cloudy 91 m
Overcast 823 m
2019/05/22 04:50 EGPC 220450Z AUTO 31007KT 6000 BKN003/// OVC027/// 09/09 Q1014

-

free counters
QR Code Twitter Scottish Weather Network UK Weather Network
Argyll House B & B

Argyll House B & B is situated in North West Skye and is the perfect base to see all that the Isle of Skye has to offer.
Bookings been taken for 2019.